sensor_id;sensor_type;location;lat;lon;timestamp;P1;durP1;ratioP1;P2;durP2;ratioP2
14774;SDS011;7479;47.042;15.160;2022-09-30T07:22:55;4.37;;;3.27;;
14774;SDS011;7479;47.042;15.160;2022-09-30T07:27:50;4.47;;;3.03;;
14774;SDS011;7479;47.042;15.160;2022-09-30T07:32:45;4.83;;;2.90;;
14774;SDS011;7479;47.042;15.160;2022-09-30T07:37:39;3.53;;;2.57;;
14774;SDS011;7479;47.042;15.160;2022-09-30T07:42:35;5.67;;;2.77;;
14774;SDS011;7479;47.042;15.160;2022-09-30T07:47:29;3.30;;;2.90;;
14774;SDS011;7479;47.042;15.160;2022-09-30T07:52:23;7.23;;;3.80;;
14774;SDS011;7479;47.042;15.160;2022-09-30T07:57:17;4.20;;;2.87;;
14774;SDS011;7479;47.042;15.160;2022-09-30T08:02:14;5.47;;;2.30;;
14774;SDS011;7479;47.042;15.160;2022-09-30T08:07:09;3.93;;;2.63;;
14774;SDS011;7479;47.042;15.160;2022-09-30T08:12:04;2.87;;;2.47;;
14774;SDS011;7479;47.042;15.160;2022-09-30T08:16:58;2.23;;;1.90;;
14774;SDS011;7479;47.042;15.160;2022-09-30T08:21:53;4.13;;;2.20;;
14774;SDS011;7479;47.042;15.160;2022-09-30T08:26:48;7.97;;;3.30;;
14774;SDS011;7479;47.042;15.160;2022-09-30T08:31:42;5.90;;;2.63;;
14774;SDS011;7479;47.042;15.160;2022-09-30T08:36:35;4.30;;;2.50;;
14774;SDS011;7479;47.042;15.160;2022-09-30T08:41:34;3.63;;;2.97;;
14774;SDS011;7479;47.042;15.160;2022-09-30T08:47:06;5.80;;;3.40;;
14774;SDS011;7479;47.042;15.160;2022-09-30T08:52:14;3.43;;;2.60;;
14774;SDS011;7479;47.042;15.160;2022-09-30T08:57:34;4.37;;;2.20;;
14774;SDS011;7479;47.042;15.160;2022-09-30T09:02:39;4.07;;;2.70;;
14774;SDS011;7479;47.042;15.160;2022-09-30T09:07:39;3.10;;;1.90;;
14774;SDS011;7479;47.042;15.160;2022-09-30T09:12:44;3.13;;;2.10;;
14774;SDS011;7479;47.042;15.160;2022-09-30T09:17:52;2.23;;;2.03;;
14774;SDS011;7479;47.042;15.160;2022-09-30T09:23:16;1.80;;;1.70;;
14774;SDS011;7479;47.042;15.160;2022-09-30T09:28:14;1.70;;;1.60;;
14774;SDS011;7479;47.042;15.160;2022-09-30T09:33:17;1.50;;;1.40;;
14774;SDS011;7479;47.042;15.160;2022-09-30T09:38:14;1.37;;;1.20;;
14774;SDS011;7479;47.042;15.160;2022-09-30T09:43:19;1.33;;;1.00;;
14774;SDS011;7479;47.042;15.160;2022-09-30T09:48:21;1.40;;;1.25;;
14774;SDS011;7479;47.042;15.160;2022-09-30T09:58:33;1.75;;;1.30;;
14774;SDS011;7479;47.042;15.160;2022-09-30T10:03:28;1.80;;;1.70;;
14774;SDS011;7479;47.042;15.160;2022-09-30T10:08:21;3.38;;;1.70;;
14774;SDS011;7479;47.042;15.160;2022-09-30T10:13:20;3.40;;;1.65;;
14774;SDS011;7479;47.042;15.160;2022-09-30T10:18:18;1.48;;;1.38;;
14774;SDS011;7479;47.042;15.160;2022-09-30T10:23:17;2.03;;;1.70;;
14774;SDS011;7479;47.042;15.160;2022-09-30T10:28:19;2.53;;;2.25;;
14774;SDS011;7479;47.042;15.160;2022-09-30T10:33:33;2.40;;;1.85;;
14774;SDS011;7479;47.042;15.160;2022-09-30T10:38:34;1.02;;;1.02;;
14774;SDS011;7479;47.042;15.160;2022-09-30T10:43:32;2.92;;;1.10;;
14774;SDS011;7479;47.042;15.160;2022-09-30T10:48:34;2.38;;;1.45;;
14774;SDS011;7479;47.042;15.160;2022-09-30T10:53:30;2.15;;;1.40;;
14774;SDS011;7479;47.042;15.160;2022-09-30T10:58:33;1.35;;;1.20;;
14774;SDS011;7479;47.042;15.160;2022-09-30T11:03:40;2.30;;;1.20;;
14774;SDS011;7479;47.042;15.160;2022-09-30T11:08:43;1.33;;;1.23;;
14774;SDS011;7479;47.042;15.160;2022-09-30T11:13:47;1.20;;;1.10;;
14774;SDS011;7479;47.042;15.160;2022-09-30T11:18:51;1.52;;;1.23;;
14774;SDS011;7479;47.042;15.160;2022-09-30T11:23:51;1.23;;;1.17;;
14774;SDS011;7479;47.042;15.160;2022-09-30T11:28:52;1.00;;;1.00;;
14774;SDS011;7479;47.042;15.160;2022-09-30T11:34:02;1.23;;;1.13;;
14774;SDS011;7479;47.042;15.160;2022-09-30T11:39:10;1.30;;;1.20;;
14774;SDS011;7479;47.042;15.160;2022-09-30T11:44:25;1.30;;;1.20;;
14774;SDS011;7479;47.042;15.160;2022-09-30T11:49:29;1.55;;;1.42;;
14774;SDS011;7479;47.042;15.160;2022-09-30T11:54:49;1.58;;;1.48;;
14774;SDS011;7479;47.042;15.160;2022-09-30T11:59:53;1.83;;;1.50;;
14774;SDS011;7479;47.042;15.160;2022-09-30T12:04:52;2.08;;;1.50;;
14774;SDS011;7479;47.042;15.160;2022-09-30T12:09:51;2.47;;;1.90;;
14774;SDS011;7479;47.042;15.160;2022-09-30T12:14:52;2.08;;;1.92;;
14774;SDS011;7479;47.042;15.160;2022-09-30T12:19:49;4.55;;;2.85;;
14774;SDS011;7479;47.042;15.160;2022-09-30T12:24:48;5.65;;;2.00;;
14774;SDS011;7479;47.042;15.160;2022-09-30T12:29:44;4.50;;;2.88;;
14774;SDS011;7479;47.042;15.160;2022-09-30T12:35:06;2.25;;;2.00;;
14774;SDS011;7479;47.042;15.160;2022-09-30T12:40:17;3.25;;;2.08;;
14774;SDS011;7479;47.042;15.160;2022-09-30T12:45:26;3.25;;;1.80;;
14774;SDS011;7479;47.042;15.160;2022-09-30T12:50:47;2.85;;;1.90;;
14774;SDS011;7479;47.042;15.160;2022-09-30T12:55:43;1.80;;;1.70;;
14774;SDS011;7479;47.042;15.160;2022-09-30T13:00:38;1.90;;;1.70;;
14774;SDS011;7479;47.042;15.160;2022-09-30T13:05:45;3.58;;;1.90;;
14774;SDS011;7479;47.042;15.160;2022-09-30T13:10:46;2.00;;;1.80;;
14774;SDS011;7479;47.042;15.160;2022-09-30T13:15:48;2.10;;;1.67;;
14774;SDS011;7479;47.042;15.160;2022-09-30T13:20:50;3.63;;;1.95;;
14774;SDS011;7479;47.042;15.160;2022-09-30T13:25:53;3.00;;;1.90;;
14774;SDS011;7479;47.042;15.160;2022-09-30T13:30:47;3.58;;;1.80;;
14774;SDS011;7479;47.042;15.160;2022-09-30T13:35:48;2.33;;;1.80;;
14774;SDS011;7479;47.042;15.160;2022-09-30T13:40:45;2.65;;;1.65;;
14774;SDS011;7479;47.042;15.160;2022-09-30T13:45:53;2.67;;;1.90;;
14774;SDS011;7479;47.042;15.160;2022-09-30T13:50:49;1.90;;;1.75;;
14774;SDS011;7479;47.042;15.160;2022-09-30T13:55:46;2.65;;;2.28;;
14774;SDS011;7479;47.042;15.160;2022-09-30T14:00:46;2.92;;;2.60;;
14774;SDS011;7479;47.042;15.160;2022-09-30T14:05:50;4.30;;;2.67;;
14774;SDS011;7479;47.042;15.160;2022-09-30T14:10:56;5.65;;;3.15;;
14774;SDS011;7479;47.042;15.160;2022-09-30T14:21:37;3.28;;;2.97;;
14774;SDS011;7479;47.042;15.160;2022-09-30T14:26:39;4.20;;;3.40;;
14774;SDS011;7479;47.042;15.160;2022-09-30T14:31:56;4.70;;;3.78;;
14774;SDS011;7479;47.042;15.160;2022-09-30T14:36:52;3.85;;;3.50;;
14774;SDS011;7479;47.042;15.160;2022-09-30T14:41:48;6.30;;;4.47;;
14774;SDS011;7479;47.042;15.160;2022-09-30T14:46:46;3.45;;;3.15;;
14774;SDS011;7479;47.042;15.160;2022-09-30T14:51:42;4.10;;;3.78;;
14774;SDS011;7479;47.042;15.160;2022-09-30T14:56:40;4.97;;;3.30;;
14774;SDS011;7479;47.042;15.160;2022-09-30T15:01:34;7.88;;;5.32;;
14774;SDS011;7479;47.042;15.160;2022-09-30T15:06:29;4.53;;;3.97;;
14774;SDS011;7479;47.042;15.160;2022-09-30T15:11:25;4.85;;;4.15;;
14774;SDS011;7479;47.042;15.160;2022-09-30T15:16:25;5.85;;;4.35;;
14774;SDS011;7479;47.042;15.160;2022-09-30T15:21:21;6.83;;;4.93;;
14774;SDS011;7479;47.042;15.160;2022-09-30T15:26:16;5.27;;;3.80;;
14774;SDS011;7479;47.042;15.160;2022-09-30T15:31:17;12.10;;;5.13;;
14774;SDS011;7479;47.042;15.160;2022-09-30T15:36:20;5.17;;;4.67;;
14774;SDS011;7479;47.042;15.160;2022-09-30T15:41:13;4.87;;;4.40;;
14774;SDS011;7479;47.042;15.160;2022-09-30T15:46:18;5.37;;;3.67;;
14774;SDS011;7479;47.042;15.160;2022-09-30T15:51:25;8.70;;;6.03;;
14774;SDS011;7479;47.042;15.160;2022-09-30T15:56:24;4.80;;;4.33;;
14774;SDS011;7479;47.042;15.160;2022-09-30T16:01:23;7.60;;;4.70;;
14774;SDS011;7479;47.042;15.160;2022-09-30T16:06:20;5.87;;;4.10;;
14774;SDS011;7479;47.042;15.160;2022-09-30T16:11:19;8.60;;;7.00;;
14774;SDS011;7479;47.042;15.160;2022-09-30T16:16:17;6.30;;;5.70;;
14774;SDS011;7479;47.042;15.160;2022-09-30T16:26:36;5.93;;;5.33;;
14774;SDS011;7479;47.042;15.160;2022-09-30T16:31:36;7.13;;;4.67;;
14774;SDS011;7479;47.042;15.160;2022-09-30T16:36:30;6.80;;;4.30;;
14774;SDS011;7479;47.042;15.160;2022-09-30T16:41:25;6.90;;;5.10;;
14774;SDS011;7479;47.042;15.160;2022-09-30T16:46:20;14.93;;;7.43;;
14774;SDS011;7479;47.042;15.160;2022-09-30T16:51:14;13.97;;;11.37;;
14774;SDS011;7479;47.042;15.160;2022-09-30T16:56:10;13.50;;;11.63;;
